Time;durP1;ratioP1;P1;durP2;ratioP2;P2;SDS_P1;SDS_P2;PMS_P1;PMS_P2;Temp;Humidity;BMP_temperature;BMP_pressure;BME280_temperature;BME280_humidity;BME280_pressure;Samples;Min_cycle;Max_cycle;Signal;HPM_P1;HPM_P2
2021/10/25 00:02:09;;;;;;;7.25;5.05;;;;;;;5.36;100.00;102184.45;1752227;80;21027;-82
2021/10/25 00:04:37;;;;;;;5.72;4.15;;;;;;;5.35;100.00;102190.51;1754940;80;21030;-82
2021/10/25 00:07:05;;;;;;;5.33;3.80;;;;;;;5.35;100.00;102187.92;1754911;80;21125;-83
2021/10/25 00:09:33;;;;;;;5.55;4.08;;;;;;;5.35;100.00;102189.68;1754974;80;21011;-82
2021/10/25 00:12:01;;;;;;;5.53;3.62;;;;;;;5.34;100.00;102193.98;1754921;80;21084;-83
2021/10/25 00:14:28;;;;;;;5.00;3.10;;;;;;;5.34;100.00;102200.44;1735255;81;22408;-83
2021/10/25 00:16:55;;;;;;;4.22;3.47;;;;;;;5.34;100.00;102203.02;1754870;80;21511;-82
2021/10/25 00:19:24;;;;;;;4.62;3.60;;;;;;;5.33;100.00;102189.70;1779011;78;21061;-82
2021/10/25 00:21:52;;;;;;;3.85;3.40;;;;;;;5.33;100.00;102202.61;1786021;80;21791;-82
2021/10/25 00:24:19;;;;;;;4.55;3.05;;;;;;;5.31;100.00;102200.55;1760252;80;21437;-84
2021/10/25 00:26:46;;;;;;;3.35;2.87;;;;;;;5.31;100.00;102201.83;1754597;80;21606;-82
2021/10/25 00:29:15;;;;;;;4.55;2.80;;;;;;;5.29;100.00;102207.48;1754902;80;21049;-82
2021/10/25 00:31:42;;;;;;;3.47;2.85;;;;;;;5.27;100.00;102205.38;1754840;80;21526;-83
2021/10/25 00:34:11;;;;;;;3.05;2.52;;;;;;;5.27;100.00;102206.66;1754623;81;21140;-83
2021/10/25 00:36:41;;;;;;;3.72;2.50;;;;;;;5.27;100.00;102209.25;1735284;80;21046;-82
2021/10/25 00:39:09;;;;;;;3.67;2.77;;;;;;;5.27;100.00;102209.25;1707170;82;21076;-83
2021/10/25 00:41:37;;;;;;;3.90;2.55;;;;;;;5.26;100.00;102211.88;1715651;83;21648;-83
2021/10/25 00:44:04;;;;;;;2.80;2.50;;;;;;;5.26;100.00;102215.30;1708883;83;21716;-82
2021/10/25 00:46:33;;;;;;;2.40;2.20;;;;;;;5.24;100.00;102215.80;1715569;83;22193;-82
2021/10/25 00:49:01;;;;;;;2.67;2.22;;;;;;;5.24;100.00;102220.97;1715570;83;21737;-84
2021/10/25 00:51:28;;;;;;;3.70;2.45;;;;;;;5.23;100.00;102217.98;1701184;83;21037;-86
2021/10/25 00:53:55;;;;;;;4.30;2.30;;;;;;;5.22;100.00;102225.33;1715428;82;21379;-85
2021/10/25 00:56:22;;;;;;;2.70;2.15;;;;;;;5.23;100.00;102228.73;1715840;82;21045;-85
2021/10/25 00:58:49;;;;;;;2.87;2.25;;;;;;;5.19;100.00;102232.72;1700974;82;21686;-84
2021/10/25 01:01:17;;;;;;;2.10;1.90;;;;;;;5.17;100.00;102233.62;1700722;82;21061;-82
2021/10/25 01:03:45;;;;;;;2.90;2.00;;;;;;;5.16;100.00;102235.37;1715557;82;21117;-82
2021/10/25 01:06:14;;;;;;;5.15;3.70;;;;;;;5.15;100.00;102237.55;1700928;82;21069;-81
2021/10/25 01:08:44;;;;;;;3.22;2.60;;;;;;;5.15;100.00;102241.88;1715580;83;21673;-82
2021/10/25 01:11:12;;;;;;;3.62;2.90;;;;;;;5.14;100.00;102239.72;1701069;82;21800;-82
2021/10/25 01:13:41;;;;;;;3.80;2.40;;;;;;;5.14;100.00;102246.63;1715441;83;21064;-83
2021/10/25 01:16:09;;;;;;;2.12;1.90;;;;;;;5.14;100.00;102246.63;1715515;83;21053;-82
2021/10/25 01:18:36;;;;;;;3.17;2.77;;;;;;;5.15;100.00;102259.50;1715463;82;21108;-82
2021/10/25 01:21:09;;;;;;;9.08;6.53;;;;;;;5.15;100.00;102254.78;1715413;82;21712;-82
2021/10/25 01:23:33;;;;;;;3.95;2.37;;;;;;;5.15;100.00;102255.62;1707804;83;21845;-82
2021/10/25 01:26:00;;;;;;;6.12;3.40;;;;;;;5.15;100.00;102261.24;1700897;83;21065;-82
2021/10/25 01:28:27;;;;;;;6.37;4.75;;;;;;;5.15;100.00;102266.41;1715902;82;21065;-81
2021/10/25 01:30:54;;;;;;;2.75;2.40;;;;;;;5.15;100.00;102270.28;1715734;83;21057;-80
2021/10/25 01:33:21;;;;;;;5.03;2.10;;;;;;;5.14;100.00;102266.83;1701415;82;20958;-83
2021/10/25 01:35:49;;;;;;;2.47;2.00;;;;;;;5.15;100.00;102275.45;1715361;82;21159;-83
2021/10/25 01:38:16;;;;;;;2.60;2.15;;;;;;;5.15;100.00;102272.86;1701414;82;21005;-81
2021/10/25 01:40:45;;;;;;;2.47;1.98;;;;;;;5.14;100.00;102273.75;1707371;84;21105;-81
2021/10/25 01:43:12;;;;;;;2.50;2.25;;;;;;;5.13;100.00;102272.05;1707586;83;21034;-82
2021/10/25 01:45:39;;;;;;;3.37;1.80;;;;;;;5.13;100.00;102272.88;1707211;84;20955;-82
2021/10/25 01:48:07;;;;;;;2.67;2.17;;;;;;;5.11;100.00;102275.97;1707420;83;21532;-82
2021/10/25 01:50:34;;;;;;;2.25;2.00;;;;;;;5.11;100.00;102281.56;1688959;82;21018;-82
2021/10/25 01:53:04;;;;;;;2.33;2.05;;;;;;;5.10;100.00;102283.73;1723095;83;21876;-82
2021/10/25 01:55:35;;;;;;;2.45;1.87;;;;;;;5.07;100.00;102290.29;1689994;83;21041;-84
2021/10/25 01:58:04;;;;;;;2.83;2.20;;;;;;;5.04;100.00;102293.34;1691367;81;21099;-81
2021/10/25 02:00:34;;;;;;;2.87;2.17;;;;;;;5.02;100.00;102294.27;1736897;81;21119;-82
2021/10/25 02:03:01;;;;;;;2.95;2.02;;;;;;;5.01;100.00;102291.28;1736814;82;21157;-81
2021/10/25 02:05:30;;;;;;;4.50;2.33;;;;;;;4.98;100.00;102304.25;1723912;81;21480;-81
2021/10/25 02:07:58;;;;;;;2.47;2.27;;;;;;;4.96;100.00;102299.14;1736869;80;21520;-82
2021/10/25 02:10:33;;;;;;;2.47;1.87;;;;;;;4.94;100.00;102301.36;1701980;81;21127;-82
2021/10/25 02:13:01;;;;;;;2.00;1.77;;;;;;;4.93;100.00;102302.23;1701229;81;21068;-85
2021/10/25 02:15:29;;;;;;;2.52;2.27;;;;;;;4.90;100.00;102306.58;1731987;81;21036;-82
2021/10/25 02:17:58;;;;;;;3.15;1.95;;;;;;;4.86;100.00;102311.43;1721118;82;21021;-82
2021/10/25 02:20:25;;;;;;;3.00;1.98;;;;;;;4.86;100.00;102310.56;1731996;81;21163;-82
2021/10/25 02:22:52;;;;;;;2.72;2.37;;;;;;;4.82;100.00;102310.25;1717383;81;21058;-81
2021/10/25 02:25:20;;;;;;;2.25;2.00;;;;;;;4.79;100.00;102317.63;1711193;82;21094;-81
2021/10/25 02:27:48;;;;;;;2.65;2.15;;;;;;;4.75;100.00;102312.11;1712563;81;21065;-82
2021/10/25 02:30:16;;;;;;;2.30;2.10;;;;;;;4.73;100.00;102317.74;1716338;82;21069;-82
2021/10/25 02:32:46;;;;;;;2.92;2.25;;;;;;;4.69;100.00;102313.09;1715285;82;21514;-82
2021/10/25 02:35:13;;;;;;;2.42;2.20;;;;;;;4.68;100.00;102315.72;1715394;82;21563;-82
2021/10/25 02:37:41;;;;;;;2.55;2.30;;;;;;;4.66;100.00;102323.52;1739751;81;21163;-82
2021/10/25 02:40:11;;;;;;;2.58;2.22;;;;;;;4.66;100.00;102329.96;1737216;81;21489;-83
2021/10/25 02:42:38;;;;;;;2.47;2.05;;;;;;;4.64;100.00;102333.01;1737278;81;21086;-82
2021/10/25 02:45:06;;;;;;;3.35;2.37;;;;;;;4.62;100.00;102330.90;1737474;82;21468;-82
2021/10/25 02:47:35;;;;;;;2.27;2.05;;;;;;;4.58;100.00;102337.86;1737356;81;21031;-83
2021/10/25 02:50:04;;;;;;;4.92;2.42;;;;;;;4.56;100.00;102333.20;1732883;81;21827;-82
2021/10/25 02:52:32;;;;;;;4.85;2.15;;;;;;;4.55;100.00;102342.24;1737334;82;21043;-84
2021/10/25 02:54:59;;;;;;;3.22;1.98;;;;;;;4.52;100.00;102341.04;1723779;81;21489;-82
2021/10/25 02:57:26;;;;;;;3.50;2.20;;;;;;;4.49;100.00;102336.77;1725551;81;21033;-81
2021/10/25 02:59:54;;;;;;;3.45;2.45;;;;;;;4.46;100.00;102338.57;1696799;82;21971;-82
2021/10/25 03:02:21;;;;;;;5.10;2.37;;;;;;;4.42;100.00;102348.11;1732959;82;21154;-85
2021/10/25 03:04:48;;;;;;;2.75;2.22;;;;;;;4.38;100.00;102345.20;1733672;81;21639;-84
2021/10/25 03:07:15;;;;;;;5.47;2.30;;;;;;;4.36;100.00;102354.70;1704589;82;21071;-84
2021/10/25 03:09:44;;;;;;;12.13;2.55;;;;;;;4.31;100.00;102353.95;1730184;82;21583;-82
2021/10/25 03:12:12;;;;;;;37.03;3.37;;;;;;;4.35;100.00;102353.86;1689616;83;21026;-83
2021/10/25 03:14:39;;;;;;;3.72;2.50;;;;;;;4.62;100.00;102350.25;1730764;81;21152;-82
2021/10/25 03:17:06;;;;;;;3.50;2.80;;;;;;;4.71;100.00;102355.21;1681993;82;21054;-82
2021/10/25 03:19:37;;;;;;;6.00;3.00;;;;;;;4.60;100.00;102357.62;1705151;82;21062;-82
2021/10/25 03:22:07;;;;;;;5.08;3.22;;;;;;;4.45;100.00;102360.12;1690058;82;21541;-82
2021/10/25 03:24:35;;;;;;;4.65;2.62;;;;;;;4.30;100.00;102360.82;1711478;81;21011;-84
2021/10/25 03:27:03;;;;;;;11.63;2.92;;;;;;;4.17;100.00;102362.80;1732533;81;21210;-81
2021/10/25 03:29:30;;;;;;;7.33;3.10;;;;;;;4.05;100.00;102367.77;1737388;82;21027;-81
2021/10/25 03:31:58;;;;;;;12.10;2.72;;;;;;;4.20;100.00;102364.50;1737603;82;21050;-81
2021/10/25 03:34:27;;;;;;;4.28;2.72;;;;;;;4.47;100.00;102368.65;1737336;81;21030;-82
2021/10/25 03:36:55;;;;;;;5.00;3.00;;;;;;;4.67;100.00;102367.80;1737549;81;21063;-82
2021/10/25 03:39:25;;;;;;;4.87;3.35;;;;;;;4.83;100.00;102371.31;1705639;81;21081;-84
2021/10/25 03:41:54;;;;;;;4.12;3.08;;;;;;;4.90;100.00;102374.99;1737336;81;21089;-83
2021/10/25 03:44:32;;;;;;;4.83;2.55;;;;;;;4.94;100.00;102375.77;1705903;82;21477;-86
2021/10/25 03:47:09;;;;;;;18.00;3.20;;;;;;;4.98;100.00;102380.42;1732646;81;21614;-82
2021/10/25 03:49:43;;;;;;;11.88;3.12;;;;;;;4.88;100.00;102381.08;1704623;81;21063;-83
2021/10/25 03:52:35;;;;;;;8.85;3.00;;;;;;;4.78;100.00;102383.03;1689207;81;21127;-82
2021/10/25 04:27:45;;;;;;;3.67;2.40;;;;;;;4.17;100.00;102423.39;1782912;78;21037;-85
2021/10/25 04:29:51;;;;;;;4.30;2.58;;;;;;;4.16;100.00;102420.86;1778406;80;20995;-83
2021/10/25 04:32:17;;;;;;;5.10;2.22;;;;;;;4.15;100.00;102418.73;1778202;78;21091;-84
2021/10/25 04:34:45;;;;;;;5.78;2.40;;;;;;;4.09;100.00;102425.27;1781928;78;21010;-84
2021/10/25 04:37:17;;;;;;;2.83;2.50;;;;;;;4.04;100.00;102420.23;1777666;79;21031;-84
2021/10/25 04:39:46;;;;;;;3.27;2.40;;;;;;;4.07;100.00;102426.59;1785740;79;21038;-84
2021/10/25 04:42:16;;;;;;;6.87;2.52;;;;;;;4.06;100.00;102427.92;1788452;80;21014;-84
2021/10/25 04:44:46;;;;;;;4.30;2.65;;;;;;;4.07;100.00;102439.48;1767821;78;21145;-84
2021/10/25 04:47:15;;;;;;;4.72;3.00;;;;;;;4.09;100.00;102444.61;1772496;78;21124;-83
2021/10/25 04:49:43;;;;;;;4.40;2.60;;;;;;;4.10;100.00;102450.18;1775408;78;22281;-84
2021/10/25 04:52:27;;;;;;;3.60;2.60;;;;;;;4.11;100.00;102451.88;1788371;78;21574;-84
2021/10/25 04:54:54;;;;;;;4.58;2.40;;;;;;;4.12;100.00;102461.77;1788370;78;21057;-85
2021/10/25 04:57:21;;;;;;;2.58;2.30;;;;;;;4.09;100.00;102457.50;1788620;80;21125;-85
2021/10/25 04:59:48;;;;;;;3.87;2.70;;;;;;;4.03;100.00;102464.93;1788482;78;21073;-85
2021/10/25 05:02:16;;;;;;;5.33;2.80;;;;;;;4.01;100.00;102465.39;1788475;78;21690;-85
2021/10/25 05:04:43;;;;;;;7.05;2.62;;;;;;;3.97;100.00;102465.47;1788789;79;21744;-85
2021/10/25 05:07:10;;;;;;;3.52;2.50;;;;;;;3.98;100.00;102474.91;1788754;78;21705;-86
2021/10/25 05:09:38;;;;;;;3.60;2.67;;;;;;;3.95;100.00;102478.39;1788848;79;21128;-85
2021/10/25 05:12:13;;;;;;;7.12;2.83;;;;;;;3.92;100.00;102481.88;1788503;78;21026;-86
2021/10/25 05:14:36;;;;;;;3.65;2.45;;;;;;;3.93;100.00;102485.30;1788578;78;21036;-86
2021/10/25 05:17:04;;;;;;;3.67;2.50;;;;;;;3.94;100.00;102488.29;1788479;78;21014;-85
2021/10/25 05:19:32;;;;;;;3.42;2.62;;;;;;;3.94;100.00;102487.84;1789010;79;21108;-85
2021/10/25 05:22:01;;;;;;;4.12;2.80;;;;;;;3.94;100.00;102497.31;1785617;78;21171;-85
2021/10/25 05:24:29;;;;;;;3.70;2.52;;;;;;;3.92;100.00;102499.05;1768659;79;21038;-86
2021/10/25 05:26:56;;;;;;;8.05;2.75;;;;;;;3.91;100.00;102505.09;1788567;78;21072;-86
2021/10/25 05:29:23;;;;;;;7.00;3.87;;;;;;;3.91;100.00;102510.23;1788938;78;21112;-86
2021/10/25 05:31:50;;;;;;;5.45;3.20;;;;;;;3.87;100.00;102512.02;1788118;78;21512;-86
2021/10/25 05:34:18;;;;;;;6.03;3.60;;;;;;;3.81;100.00;102520.27;1781355;78;21136;-88
2021/10/25 05:36:45;;;;;;;4.25;3.50;;;;;;;3.74;100.00;102520.38;1788655;78;20998;-89
2021/10/25 05:39:12;;;;;;;5.60;3.58;;;;;;;3.72;100.00;102523.86;1774438;79;21620;-88
2021/10/25 05:41:40;;;;;;;5.37;3.67;;;;;;;3.74;100.00;102522.96;1747750;79;21094;-90
2021/10/25 05:44:07;;;;;;;6.80;3.80;;;;;;;3.79;100.00;102537.94;1771605;79;21796;-89
2021/10/25 05:46:34;;;;;;;5.42;3.40;;;;;;;3.87;100.00;102539.53;1757879;79;21621;-88
2021/10/25 05:49:02;;;;;;;6.95;3.77;;;;;;;3.92;100.00;102536.02;1771538;79;21595;-89
2021/10/25 05:51:30;;;;;;;9.20;3.83;;;;;;;4.03;100.00;102547.85;1772117;79;20979;-90
2021/10/25 05:53:59;;;;;;;5.25;3.72;;;;;;;4.10;100.00;102550.31;1771909;79;21081;-89
2021/10/25 05:56:28;;;;;;;10.03;4.33;;;;;;;4.13;100.00;102550.70;1759093;80;21006;-88
2021/10/25 05:58:55;;;;;;;6.33;3.55;;;;;;;4.16;100.00;102550.66;1772349;81;21833;-87
2021/10/25 06:01:27;;;;;;;5.87;3.70;;;;;;;4.20;100.00;102561.31;1772133;81;21441;-87
2021/10/25 06:04:07;;;;;;;4.75;3.75;;;;;;;4.24;100.00;102558.24;1767002;79;21043;-88
2021/10/25 06:06:36;;;;;;;4.95;3.15;;;;;;;4.29;100.00;102562.03;1770649;79;21011;-87
2021/10/25 06:09:05;;;;;;;6.85;3.30;;;;;;;4.33;100.00;102568.41;1772026;79;21050;-88
2021/10/25 06:11:35;;;;;;;5.87;3.58;;;;;;;4.37;100.00;102573.91;1772521;79;21095;-87
2021/10/25 06:14:05;;;;;;;5.05;3.90;;;;;;;4.44;100.00;102573.82;1749423;79;21046;-90
2021/10/25 06:16:46;;;;;;;4.70;3.20;;;;;;;4.49;100.00;102578.45;1761399;79;21050;-88
2021/10/25 06:19:15;;;;;;;7.08;2.83;;;;;;;4.52;100.00;102583.56;1729002;81;21525;-89
2021/10/25 06:21:42;;;;;;;3.95;2.75;;;;;;;4.56;100.00;102578.74;1743297;81;21620;-88
2021/10/25 06:24:09;;;;;;;5.17;2.85;;;;;;;4.60;100.00;102576.53;1741510;81;21770;-88
2021/10/25 06:26:44;;;;;;;5.05;2.75;;;;;;;4.63;100.00;102573.88;1723625;82;21046;-89
2021/10/25 06:29:12;;;;;;;3.87;2.75;;;;;;;4.72;100.00;102575.45;1754793;79;21595;-87
2021/10/25 06:31:41;;;;;;;3.37;2.92;;;;;;;4.81;100.00;102573.95;1744365;81;21779;-87
2021/10/25 06:34:21;;;;;;;4.22;2.62;;;;;;;4.87;100.00;102574.28;1741530;81;21039;-87
2021/10/25 06:36:59;;;;;;;3.67;2.62;;;;;;;4.93;100.00;102567.70;1711605;82;22298;-87
2021/10/25 06:39:37;;;;;;;3.25;2.30;;;;;;;5.01;100.00;102573.56;1760580;79;21567;-86
2021/10/25 06:42:03;;;;;;;4.17;2.85;;;;;;;5.08;100.00;102574.75;1769922;79;21035;-87
2021/10/25 06:44:55;;;;;;;4.20;2.60;;;;;;;5.13;100.00;102580.66;1770123;79;21070;-87
2021/10/25 06:47:24;;;;;;;3.40;2.80;;;;;;;5.18;100.00;102578.82;1754998;81;21757;-86
2021/10/25 06:49:52;;;;;;;5.75;2.77;;;;;;;5.25;100.00;102575.22;1772372;79;21081;-89
2021/10/25 06:52:20;;;;;;;8.75;3.27;;;;;;;5.34;100.00;102578.07;1772070;79;21038;-88
2021/10/25 06:54:47;;;;;;;3.90;2.62;;;;;;;5.44;100.00;102578.70;1772019;79;21081;-91
2021/10/25 06:57:14;;;;;;;4.47;2.72;;;;;;;5.53;100.00;102581.09;1758661;80;21073;-87
2021/10/25 06:59:43;;;;;;;4.17;2.42;;;;;;;5.56;100.00;102577.59;1769782;79;21485;-84
2021/10/25 07:02:11;;;;;;;4.33;2.67;;;;;;;5.60;100.00;102588.28;1770360;79;21640;-85
2021/10/25 07:04:39;;;;;;;3.55;2.58;;;;;;;5.62;100.00;102578.73;1772188;79;21524;-88
2021/10/25 07:07:06;;;;;;;3.50;2.10;;;;;;;5.65;100.00;102579.51;1759291;81;21055;-88
2021/10/25 07:09:34;;;;;;;4.03;2.37;;;;;;;5.75;100.00;102577.58;1770770;79;21112;-96
2021/10/25 07:12:01;;;;;;;4.58;2.60;;;;;;;5.84;100.00;102585.13;1754151;79;21133;-88
2021/10/25 07:14:33;;;;;;;5.40;2.40;;;;;;;5.87;100.00;102577.73;1742057;81;21099;-87
2021/10/25 07:17:16;;;;;;;2.47;2.15;;;;;;;5.88;100.00;102584.61;1740444;81;21026;-85
2021/10/25 07:22:23;;;;;;;3.47;2.55;;;;;;;5.96;100.00;102581.40;1733211;80;21062;-84
2021/10/25 07:27:50;;;;;;;4.00;2.30;;;;;;;6.15;100.00;102579.66;1771467;79;21133;-87
2021/10/25 08:06:27;;;;;;;6.08;2.05;;;;;;;7.28;87.80;102601.66;1788538;80;21109;-86
2021/10/25 08:12:05;;;;;;;8.78;4.30;;;;;;;7.44;73.86;102597.72;1768592;80;21211;-85
2021/10/25 08:14:05;;;;;;;11.65;6.80;;;;;;;7.49;70.82;102599.71;1780644;78;21516;-83
2021/10/25 08:19:25;;;;;;;4.72;2.40;;;;;;;7.65;64.25;102600.56;1788255;80;21037;-88
2021/10/25 08:21:58;;;;;;;56.40;16.17;;;;;;;7.67;59.31;102601.34;1768059;80;21061;-89
2021/10/25 08:24:34;;;;;;;23.35;8.88;;;;;;;7.69;60.57;102602.16;1752034;78;21042;-87
2021/10/25 08:27:05;;;;;;;22.52;9.55;;;;;;;7.72;60.16;102599.48;1765164;80;20967;-91
2021/10/25 08:29:38;;;;;;;47.35;22.52;;;;;;;7.78;61.29;102594.09;1718801;81;21029;-93
2021/10/25 08:32:20;;;;;;;59.63;26.48;;;;;;;7.86;58.30;102599.88;1784706;78;21006;-88
2021/10/25 08:40:01;;;;;;;3.52;2.17;;;;;;;7.99;55.52;102599.47;1780188;79;21041;-86
2021/10/25 08:42:36;;;;;;;2.10;1.65;;;;;;;7.99;54.69;102604.23;1781188;80;21512;-86
2021/10/25 08:45:28;;;;;;;6.70;3.42;;;;;;;8.03;54.23;102601.09;1751239;80;21013;-86
2021/10/25 08:47:48;;;;;;;8.75;3.98;;;;;;;8.14;55.54;102608.05;1772956;79;20998;-87
2021/10/25 08:50:19;;;;;;;2.65;1.40;;;;;;;8.29;54.64;102608.47;1765983;79;21120;-87
2021/10/25 08:52:47;;;;;;;2.08;1.55;;;;;;;8.33;51.35;102615.23;1778921;78;21081;-91
2021/10/25 08:55:18;;;;;;;3.10;1.75;;;;;;;8.16;48.38;102617.10;1735613;80;21033;-91
2021/10/25 08:57:48;;;;;;;10.13;4.35;;;;;;;7.86;48.91;102623.23;1755024;80;21014;-83
2021/10/25 09:00:19;;;;;;;5.37;3.98;;;;;;;7.57;50.40;102619.77;1755107;81;21876;-82
2021/10/25 09:03:04;;;;;;;1.40;1.30;;;;;;;7.40;51.07;102625.94;1752120;80;21460;-87
2021/10/25 09:05:31;;;;;;;2.12;1.55;;;;;;;7.25;50.82;102629.81;1755166;80;21042;-90
2021/10/25 09:08:06;;;;;;;8.58;4.90;;;;;;;7.21;51.45;102631.64;1735913;81;21057;-89
2021/10/25 09:10:43;;;;;;;3.67;2.05;;;;;;;7.32;52.44;102627.45;1754674;81;21089;-92
2021/10/25 09:13:20;;;;;;;5.50;3.52;;;;;;;7.49;50.66;102633.87;1755621;79;21899;-91
2021/10/25 09:15:59;;;;;;;5.85;3.60;;;;;;;7.63;51.74;102630.88;1766296;80;21287;-89
2021/10/25 09:18:45;;;;;;;11.20;7.08;;;;;;;7.84;52.17;102634.09;1784063;79;21077;-91
2021/10/25 09:21:14;;;;;;;3.08;2.22;;;;;;;8.09;50.68;102619.50;1777691;78;21037;-90
2021/10/25 09:23:49;;;;;;;8.75;3.10;;;;;;;8.26;51.01;102622.83;1754969;80;21508;-91
2021/10/25 09:26:24;;;;;;;3.60;2.77;;;;;;;8.31;49.92;102624.38;1755135;80;21878;-92
2021/10/25 09:28:58;;;;;;;3.27;2.27;;;;;;;8.29;49.29;102622.73;1761246;79;21038;-92
2021/10/25 09:31:33;;;;;;;3.20;2.27;;;;;;;8.13;48.91;102631.00;1736373;81;21045;-91
2021/10/25 09:34:13;;;;;;;10.88;7.28;;;;;;;7.92;49.64;102627.38;1754972;81;21049;-91
2021/10/25 09:37:14;;;;;;;3.47;2.85;;;;;;;7.79;50.44;102627.34;1764003;80;21182;-91
2021/10/25 09:50:50;;;;;;;3.17;1.92;;;;;;;7.78;49.32;102621.33;1725302;82;20501;-95
2021/10/25 09:53:15;;;;;;;8.85;2.58;;;;;;;7.68;49.43;102607.80;1728847;81;21644;-87
2021/10/25 09:55:45;;;;;;;7.90;2.10;;;;;;;7.70;50.24;102611.64;1731350;81;21516;-90
2021/10/25 09:58:18;;;;;;;2.92;2.10;;;;;;;7.81;48.60;102623.80;1745330;79;20979;-90
2021/10/25 10:00:50;;;;;;;7.37;2.20;;;;;;;7.90;48.97;102621.38;1738338;79;21516;-90
2021/10/25 10:03:18;;;;;;;2.95;1.90;;;;;;;8.05;50.86;102608.38;1728688;81;21046;-84
2021/10/25 10:05:50;;;;;;;6.53;5.10;;;;;;;8.14;48.75;102606.75;1744907;79;21064;-82
2021/10/25 10:08:18;;;;;;;4.85;3.72;;;;;;;8.12;48.83;102616.36;1769227;79;21014;-85
2021/10/25 10:10:47;;;;;;;3.10;2.47;;;;;;;8.04;48.92;102619.66;1758399;79;21547;-85
2021/10/25 10:13:19;;;;;;;3.35;2.67;;;;;;;7.95;48.66;102618.64;1731071;81;21039;-80
2021/10/25 10:15:58;;;;;;;3.55;2.55;;;;;;;7.84;49.38;102631.50;1712489;82;21121;-82
2021/10/25 10:18:30;;;;;;;2.22;1.77;;;;;;;7.80;48.83;102619.54;1709936;82;21057;-81
2021/10/25 10:21:17;;;;;;;2.77;2.20;;;;;;;7.86;49.36;102615.88;1750319;79;21533;-82
2021/10/25 10:23:52;;;;;;;2.10;1.90;;;;;;;8.00;48.35;102620.63;1772217;79;21462;-84
2021/10/25 10:26:20;;;;;;;5.00;1.77;;;;;;;8.13;48.70;102614.59;1756555;80;21023;-81
2021/10/25 10:28:51;;;;;;;3.50;2.42;;;;;;;8.20;47.80;102605.27;1750874;79;21032;-81
2021/10/25 10:31:25;;;;;;;2.37;1.60;;;;;;;8.28;49.42;102619.28;1764198;79;21892;-82
2021/10/25 10:33:58;;;;;;;2.77;2.10;;;;;;;8.30;47.52;102611.00;1762683;79;21111;-81
2021/10/25 10:36:32;;;;;;;2.40;2.20;;;;;;;8.31;48.82;102615.73;1761028;79;21124;-81
2021/10/25 10:39:10;;;;;;;3.60;2.67;;;;;;;8.35;49.38;102611.68;1748920;79;21598;-81
2021/10/25 10:41:53;;;;;;;6.58;3.45;;;;;;;8.41;47.44;102608.03;1745306;80;21100;-81
2021/10/25 10:44:58;;;;;;;3.35;2.15;;;;;;;8.43;46.16;102621.82;1757320;78;21518;-81
2021/10/25 10:47:20;;;;;;;4.05;2.30;;;;;;;8.44;45.82;102610.97;1767375;79;21068;-81
2021/10/25 10:49:50;;;;;;;5.30;4.22;;;;;;;8.37;46.69;102605.16;1778996;78;21029;-81
2021/10/25 10:55:19;;;;;;;4.00;2.30;;;;;;;8.38;46.27;102605.53;1780522;79;21005;-81
2021/10/25 11:00:46;;;;;;;3.35;3.05;;;;;;;8.49;45.35;102609.95;1778190;78;21649;-80
2021/10/25 11:03:21;;;;;;;3.08;1.52;;;;;;;8.48;44.51;102612.61;1779824;79;21036;-80
2021/10/25 11:05:58;;;;;;;4.35;2.00;;;;;;;8.36;44.57;102613.84;1777152;80;20977;-81
2021/10/25 11:08:32;;;;;;;3.77;1.90;;;;;;;8.24;45.31;102612.94;1811812;78;20974;-81
2021/10/25 11:11:19;;;;;;;3.08;1.98;;;;;;;8.16;45.16;102616.64;1809720;79;21093;-82
2021/10/25 11:14:11;;;;;;;2.17;1.77;;;;;;;8.09;45.65;102609.96;1787975;78;20993;-83
2021/10/25 11:19:06;;;;;;;2.08;1.67;;;;;;;8.06;45.08;102610.05;1735504;82;21104;-82
2021/10/25 11:21:46;;;;;;;2.42;1.75;;;;;;;8.07;46.00;102611.75;1743363;80;21622;-82
2021/10/25 11:24:15;;;;;;;2.35;1.62;;;;;;;8.07;45.61;102611.75;1719990;80;21145;-81
2021/10/25 11:26:53;;;;;;;2.15;1.80;;;;;;;8.10;46.17;102607.77;1747974;80;21024;-83
2021/10/25 11:29:33;;;;;;;2.85;1.95;;;;;;;8.14;46.31;102611.94;1765278;80;21037;-80
2021/10/25 11:32:06;;;;;;;3.67;1.77;;;;;;;8.16;45.79;102606.27;1780020;80;21060;-81
2021/10/25 11:34:45;;;;;;;3.58;2.12;;;;;;;8.13;45.16;102612.00;1747348;80;21052;-81
2021/10/25 11:37:20;;;;;;;2.42;1.85;;;;;;;8.05;45.60;102609.22;1799018;78;21098;-82
2021/10/25 11:40:00;;;;;;;2.25;1.90;;;;;;;8.00;45.74;102605.06;1780015;79;21040;-82
2021/10/25 11:42:38;;;;;;;4.05;2.00;;;;;;;7.98;46.29;102605.56;1756783;80;21025;-81
2021/10/25 11:45:15;;;;;;;1.92;1.70;;;;;;;7.97;45.39;102609.91;1736639;81;21424;-81
2021/10/25 11:47:49;;;;;;;2.25;1.80;;;;;;;7.93;45.50;102605.73;1785690;78;21032;-84
2021/10/25 11:50:31;;;;;;;3.20;1.70;;;;;;;7.86;45.60;102599.88;1693855;81;21149;-81
2021/10/25 11:53:06;;;;;;;;;;;;;;;7.85;46.78;102596.89;1734519;81;21026;-83
2021/10/25 11:55:38;;;;;;;2.62;2.02;;;;;;;7.88;46.04;102600.69;1744648;82;20555;-81
2021/10/25 11:58:14;;;;;;;3.20;1.90;;;;;;;7.86;46.39;102598.59;1744768;81;21537;-81
2021/10/25 12:03:23;;;;;;;90.47;52.15;;;;;;;7.80;45.99;102606.57;1741128;80;21161;-81
2021/10/25 12:05:52;;;;;;;8.05;4.62;;;;;;;7.80;45.54;102617.38;1745417;80;21021;-81
2021/10/25 12:08:24;;;;;;;2.17;1.82;;;;;;;7.80;46.96;102613.48;1765804;80;21086;-81
2021/10/25 12:10:53;;;;;;;2.75;2.08;;;;;;;7.81;46.55;102608.70;1787502;79;21102;-81
2021/10/25 12:13:20;;;;;;;2.22;1.87;;;;;;;7.76;47.09;102603.66;1756616;80;21569;-79
2021/10/25 12:15:59;;;;;;;5.53;2.20;;;;;;;7.73;47.13;102611.09;1753588;80;21124;-80
2021/10/25 12:18:28;;;;;;;3.75;2.27;;;;;;;7.70;46.96;102611.64;1762249;79;21540;-81
2021/10/25 12:21:01;;;;;;;5.90;2.30;;;;;;;7.68;47.20;102612.98;1771192;79;21096;-82
2021/10/25 12:23:30;;;;;;;4.35;2.65;;;;;;;7.69;47.38;102610.77;1745595;81;21001;-79
2021/10/25 12:26:03;;;;;;;4.70;2.47;;;;;;;7.66;47.27;102609.59;1750184;81;21033;-82
2021/10/25 12:28:36;;;;;;;3.40;2.20;;;;;;;7.64;46.99;102615.72;1739184;80;21146;-81
2021/10/25 12:31:14;;;;;;;2.50;1.90;;;;;;;7.62;47.26;102616.20;1783477;79;20996;-80
2021/10/25 12:33:45;;;;;;;3.60;2.40;;;;;;;7.54;47.17;102615.13;1787364;79;21094;-83
2021/10/25 12:36:23;;;;;;;;;;;;;;;7.48;48.43;102616.19;1790390;79;21083;-79
2021/10/25 12:38:57;;;;;;;2.65;1.98;;;;;;;7.46;47.32;102627.47;1739624;81;20179;-79
2021/10/25 12:41:24;;;;;;;3.12;2.22;;;;;;;7.42;47.52;102624.13;1750356;80;21155;-81
2021/10/25 12:43:59;;;;;;;4.62;2.87;;;;;;;7.37;46.90;102620.83;1777687;78;21571;-80
2021/10/25 12:46:34;;;;;;;5.40;3.17;;;;;;;7.35;47.62;102618.30;1779306;78;21582;-80
2021/10/25 12:49:05;;;;;;;6.53;3.45;;;;;;;7.32;47.52;102621.42;1770658;78;21045;-80
2021/10/25 12:51:39;;;;;;;4.22;3.60;;;;;;;7.28;47.70;102625.85;1809012;78;21602;-79
2021/10/25 12:54:14;;;;;;;7.10;3.80;;;;;;;7.24;48.20;102628.98;1756200;80;21084;-80
2021/10/25 12:56:44;;;;;;;4.83;4.25;;;;;;;7.23;49.10;102630.30;1765412;79;21077;-80
2021/10/25 12:59:17;;;;;;;5.40;4.25;;;;;;;7.25;48.67;102622.87;1735373;81;21541;-81
2021/10/25 13:01:55;;;;;;;8.40;5.37;;;;;;;7.25;48.02;102627.22;1762600;80;21651;-82
2021/10/25 13:04:23;;;;;;;8.58;4.97;;;;;;;7.21;48.13;102626.92;1750625;81;21065;-82
2021/10/25 13:06:51;;;;;;;7.17;5.83;;;;;;;7.17;49.55;102624.00;1696317;82;21936;-82
2021/10/25 13:09:18;;;;;;;5.25;4.65;;;;;;;7.16;48.82;102629.64;1717997;82;21018;-81
2021/10/25 13:11:46;;;;;;;12.23;6.00;;;;;;;7.16;48.92;102623.17;1743701;82;21056;-82
2021/10/25 13:14:14;;;;;;;7.17;5.22;;;;;;;7.15;48.46;102622.76;1772618;78;21076;-83
2021/10/25 13:16:45;;;;;;;11.75;7.00;;;;;;;7.14;48.52;102629.26;1785839;80;21041;-83
2021/10/25 13:19:17;;;;;;;8.88;6.60;;;;;;;7.14;49.10;102627.53;1779164;80;21883;-82
2021/10/25 13:21:48;;;;;;;11.12;8.13;;;;;;;7.12;49.63;102629.31;1780760;79;21003;-82
2021/10/25 13:24:16;;;;;;;24.20;17.25;;;;;;;7.10;48.47;102628.50;1785733;78;21030;-83
2021/10/25 13:26:43;;;;;;;86.40;56.25;;;;;;;7.07;48.70;102637.21;1784134;79;20980;-81
2021/10/25 13:29:11;;;;;;;22.65;16.82;;;;;;;7.05;48.72;102629.09;1786077;79;21637;-80
2021/10/25 13:31:38;;;;;;;18.30;14.15;;;;;;;7.03;48.95;102626.55;1785980;78;21123;-80
2021/10/25 13:34:06;;;;;;;11.03;9.73;;;;;;;7.04;50.64;102629.97;1785473;78;21129;-80